sensor_id;sensor_type;location;lat;lon;timestamp;P1;durP1;ratioP1;P2;durP2;ratioP2
1649;SDS011;822;53.670;8.676;2022-10-16T00:02:13;1.70;;;1.60;;
1649;SDS011;822;53.670;8.676;2022-10-16T00:04:40;3.70;;;1.80;;
1649;SDS011;822;53.670;8.676;2022-10-16T00:07:07;1.93;;;1.80;;
1649;SDS011;822;53.670;8.676;2022-10-16T00:09:34;1.90;;;1.67;;
1649;SDS011;822;53.670;8.676;2022-10-16T00:12:02;1.63;;;1.53;;
1649;SDS011;822;53.670;8.676;2022-10-16T00:14:31;3.43;;;1.60;;
1649;SDS011;822;53.670;8.676;2022-10-16T00:16:58;1.43;;;1.33;;
1649;SDS011;822;53.670;8.676;2022-10-16T00:19:25;2.47;;;1.93;;
1649;SDS011;822;53.670;8.676;2022-10-16T00:21:52;1.83;;;1.50;;
1649;SDS011;822;53.670;8.676;2022-10-16T00:24:19;3.13;;;1.50;;
1649;SDS011;822;53.670;8.676;2022-10-16T00:26:45;1.73;;;1.20;;
1649;SDS011;822;53.670;8.676;2022-10-16T00:29:17;2.17;;;1.97;;
1649;SDS011;822;53.670;8.676;2022-10-16T00:31:44;1.47;;;1.37;;
1649;SDS011;822;53.670;8.676;2022-10-16T00:34:10;1.33;;;1.27;;
1649;SDS011;822;53.670;8.676;2022-10-16T00:36:40;1.90;;;1.67;;
1649;SDS011;822;53.670;8.676;2022-10-16T00:39:10;1.93;;;1.83;;
1649;SDS011;822;53.670;8.676;2022-10-16T00:41:37;1.10;;;1.07;;
1649;SDS011;822;53.670;8.676;2022-10-16T00:44:40;2.70;;;1.63;;
1649;SDS011;822;53.670;8.676;2022-10-16T00:47:13;1.83;;;1.47;;
1649;SDS011;822;53.670;8.676;2022-10-16T00:49:43;1.67;;;1.57;;
1649;SDS011;822;53.670;8.676;2022-10-16T00:52:10;4.53;;;1.23;;
1649;SDS011;822;53.670;8.676;2022-10-16T00:54:37;1.37;;;1.27;;
1649;SDS011;822;53.670;8.676;2022-10-16T00:57:05;1.27;;;1.17;;
1649;SDS011;822;53.670;8.676;2022-10-16T00:59:33;1.77;;;1.60;;
1649;SDS011;822;53.670;8.676;2022-10-16T01:02:03;1.40;;;1.20;;
1649;SDS011;822;53.670;8.676;2022-10-16T01:04:31;2.10;;;1.90;;
1649;SDS011;822;53.670;8.676;2022-10-16T01:07:01;1.27;;;1.10;;
1649;SDS011;822;53.670;8.676;2022-10-16T01:09:34;3.20;;;1.70;;
1649;SDS011;822;53.670;8.676;2022-10-16T01:12:06;1.10;;;1.10;;
1649;SDS011;822;53.670;8.676;2022-10-16T01:14:38;1.67;;;1.57;;
1649;SDS011;822;53.670;8.676;2022-10-16T01:17:09;1.40;;;1.30;;
1649;SDS011;822;53.670;8.676;2022-10-16T01:19:45;1.83;;;1.73;;
1649;SDS011;822;53.670;8.676;2022-10-16T01:22:20;1.80;;;1.70;;
1649;SDS011;822;53.670;8.676;2022-10-16T01:24:49;1.67;;;1.57;;
1649;SDS011;822;53.670;8.676;2022-10-16T01:27:18;3.13;;;1.40;;
1649;SDS011;822;53.670;8.676;2022-10-16T01:29:49;1.63;;;1.53;;
1649;SDS011;822;53.670;8.676;2022-10-16T01:32:28;0.80;;;0.80;;
1649;SDS011;822;53.670;8.676;2022-10-16T01:35:02;1.50;;;1.40;;
1649;SDS011;822;53.670;8.676;2022-10-16T01:37:32;2.50;;;1.30;;
1649;SDS011;822;53.670;8.676;2022-10-16T01:40:02;1.20;;;1.10;;
1649;SDS011;822;53.670;8.676;2022-10-16T01:42:35;1.63;;;1.30;;
1649;SDS011;822;53.670;8.676;2022-10-16T01:45:03;2.00;;;1.80;;
1649;SDS011;822;53.670;8.676;2022-10-16T01:47:32;3.33;;;1.60;;
1649;SDS011;822;53.670;8.676;2022-10-16T01:50:01;1.70;;;1.60;;
1649;SDS011;822;53.670;8.676;2022-10-16T01:52:30;1.00;;;1.00;;
1649;SDS011;822;53.670;8.676;2022-10-16T01:54:59;1.70;;;1.60;;
1649;SDS011;822;53.670;8.676;2022-10-16T01:57:27;2.40;;;1.47;;
1649;SDS011;822;53.670;8.676;2022-10-16T01:59:56;1.80;;;1.33;;
1649;SDS011;822;53.670;8.676;2022-10-16T02:02:27;1.40;;;1.30;;
1649;SDS011;822;53.670;8.676;2022-10-16T02:04:57;1.17;;;1.13;;
1649;SDS011;822;53.670;8.676;2022-10-16T02:07:28;1.37;;;1.27;;
1649;SDS011;822;53.670;8.676;2022-10-16T02:09:55;1.30;;;1.30;;
1649;SDS011;822;53.670;8.676;2022-10-16T02:12:24;1.10;;;1.10;;
1649;SDS011;822;53.670;8.676;2022-10-16T02:14:53;1.80;;;1.30;;
1649;SDS011;822;53.670;8.676;2022-10-16T02:17:25;1.20;;;1.20;;
1649;SDS011;822;53.670;8.676;2022-10-16T02:19:52;1.67;;;1.57;;
1649;SDS011;822;53.670;8.676;2022-10-16T02:22:21;1.60;;;1.30;;
1649;SDS011;822;53.670;8.676;2022-10-16T02:24:51;0.90;;;0.90;;
1649;SDS011;822;53.670;8.676;2022-10-16T02:27:22;1.20;;;1.10;;
1649;SDS011;822;53.670;8.676;2022-10-16T02:29:53;1.40;;;1.30;;
1649;SDS011;822;53.670;8.676;2022-10-16T02:32:26;1.60;;;1.20;;
1649;SDS011;822;53.670;8.676;2022-10-16T02:34:55;3.30;;;1.33;;
1649;SDS011;822;53.670;8.676;2022-10-16T02:37:22;0.80;;;0.80;;
1649;SDS011;822;53.670;8.676;2022-10-16T02:39:50;0.90;;;0.90;;
1649;SDS011;822;53.670;8.676;2022-10-16T02:42:18;1.10;;;1.00;;
1649;SDS011;822;53.670;8.676;2022-10-16T02:44:45;0.90;;;0.90;;
1649;SDS011;822;53.670;8.676;2022-10-16T02:47:12;0.80;;;0.80;;
1649;SDS011;822;53.670;8.676;2022-10-16T02:49:40;2.33;;;1.10;;
1649;SDS011;822;53.670;8.676;2022-10-16T02:52:06;1.33;;;1.30;;
1649;SDS011;822;53.670;8.676;2022-10-16T02:54:33;2.47;;;1.53;;
1649;SDS011;822;53.670;8.676;2022-10-16T02:57:00;1.50;;;1.40;;
1649;SDS011;822;53.670;8.676;2022-10-16T02:59:27;1.23;;;0.83;;
1649;SDS011;822;53.670;8.676;2022-10-16T03:01:54;1.13;;;1.03;;
1649;SDS011;822;53.670;8.676;2022-10-16T03:04:20;3.20;;;0.73;;
1649;SDS011;822;53.670;8.676;2022-10-16T03:06:48;1.17;;;0.90;;
1649;SDS011;822;53.670;8.676;2022-10-16T03:09:15;2.10;;;0.93;;
1649;SDS011;822;53.670;8.676;2022-10-16T03:11:42;1.10;;;1.00;;
1649;SDS011;822;53.670;8.676;2022-10-16T03:14:09;3.90;;;1.37;;
1649;SDS011;822;53.670;8.676;2022-10-16T03:16:36;0.93;;;0.93;;
1649;SDS011;822;53.670;8.676;2022-10-16T03:19:02;1.03;;;1.03;;
1649;SDS011;822;53.670;8.676;2022-10-16T03:21:29;0.97;;;0.97;;
1649;SDS011;822;53.670;8.676;2022-10-16T03:24:01;1.10;;;1.00;;
1649;SDS011;822;53.670;8.676;2022-10-16T03:26:27;0.73;;;0.67;;
1649;SDS011;822;53.670;8.676;2022-10-16T03:28:54;1.77;;;1.03;;
1649;SDS011;822;53.670;8.676;2022-10-16T03:31:21;0.87;;;0.87;;
1649;SDS011;822;53.670;8.676;2022-10-16T03:33:48;2.20;;;0.80;;
1649;SDS011;822;53.670;8.676;2022-10-16T03:36:15;1.20;;;0.80;;
1649;SDS011;822;53.670;8.676;2022-10-16T03:38:41;1.10;;;1.00;;
1649;SDS011;822;53.670;8.676;2022-10-16T03:41:09;0.80;;;0.80;;
1649;SDS011;822;53.670;8.676;2022-10-16T03:43:36;0.87;;;0.70;;
1649;SDS011;822;53.670;8.676;2022-10-16T03:46:03;1.00;;;1.00;;
1649;SDS011;822;53.670;8.676;2022-10-16T03:48:30;0.70;;;0.70;;
1649;SDS011;822;53.670;8.676;2022-10-16T03:50:57;4.53;;;1.30;;
1649;SDS011;822;53.670;8.676;2022-10-16T03:53:24;0.90;;;0.90;;
1649;SDS011;822;53.670;8.676;2022-10-16T03:55:51;1.50;;;1.40;;
1649;SDS011;822;53.670;8.676;2022-10-16T03:58:19;0.80;;;0.80;;
1649;SDS011;822;53.670;8.676;2022-10-16T04:00:46;0.77;;;0.77;;
1649;SDS011;822;53.670;8.676;2022-10-16T04:03:13;0.90;;;0.90;;
1649;SDS011;822;53.670;8.676;2022-10-16T04:05:40;2.80;;;0.93;;
1649;SDS011;822;53.670;8.676;2022-10-16T04:08:07;1.00;;;0.90;;
1649;SDS011;822;53.670;8.676;2022-10-16T04:10:34;1.50;;;1.10;;
1649;SDS011;822;53.670;8.676;2022-10-16T04:13:01;1.97;;;1.00;;
1649;SDS011;822;53.670;8.676;2022-10-16T04:15:29;1.00;;;1.00;;
1649;SDS011;822;53.670;8.676;2022-10-16T04:17:56;1.33;;;0.77;;
1649;SDS011;822;53.670;8.676;2022-10-16T04:20:23;0.60;;;0.60;;
1649;SDS011;822;53.670;8.676;2022-10-16T04:22:49;0.80;;;0.80;;
1649;SDS011;822;53.670;8.676;2022-10-16T04:25:16;1.83;;;1.00;;
1649;SDS011;822;53.670;8.676;2022-10-16T04:27:43;1.03;;;1.03;;
1649;SDS011;822;53.670;8.676;2022-10-16T04:30:10;1.03;;;1.03;;
1649;SDS011;822;53.670;8.676;2022-10-16T04:32:38;0.87;;;0.87;;
1649;SDS011;822;53.670;8.676;2022-10-16T04:35:06;1.03;;;0.77;;
1649;SDS011;822;53.670;8.676;2022-10-16T04:37:33;1.40;;;0.87;;
1649;SDS011;822;53.670;8.676;2022-10-16T04:40:00;0.80;;;0.80;;
1649;SDS011;822;53.670;8.676;2022-10-16T04:42:27;0.93;;;0.93;;
1649;SDS011;822;53.670;8.676;2022-10-16T04:44:54;1.27;;;1.20;;
1649;SDS011;822;53.670;8.676;2022-10-16T04:47:20;1.90;;;0.80;;
1649;SDS011;822;53.670;8.676;2022-10-16T04:49:49;0.87;;;0.80;;
1649;SDS011;822;53.670;8.676;2022-10-16T04:52:15;0.90;;;0.90;;
1649;SDS011;822;53.670;8.676;2022-10-16T04:54:44;1.03;;;0.97;;
1649;SDS011;822;53.670;8.676;2022-10-16T04:57:14;0.67;;;0.67;;
1649;SDS011;822;53.670;8.676;2022-10-16T04:59:41;0.80;;;0.80;;
1649;SDS011;822;53.670;8.676;2022-10-16T05:02:08;1.07;;;0.87;;
1649;SDS011;822;53.670;8.676;2022-10-16T05:04:35;1.13;;;1.10;;
1649;SDS011;822;53.670;8.676;2022-10-16T05:07:03;1.37;;;1.00;;
1649;SDS011;822;53.670;8.676;2022-10-16T05:09:29;0.60;;;0.60;;
1649;SDS011;822;53.670;8.676;2022-10-16T05:11:56;0.97;;;0.97;;
1649;SDS011;822;53.670;8.676;2022-10-16T05:14:23;1.10;;;1.10;;
1649;SDS011;822;53.670;8.676;2022-10-16T05:16:50;1.30;;;1.20;;
1649;SDS011;822;53.670;8.676;2022-10-16T05:19:17;1.53;;;1.43;;
1649;SDS011;822;53.670;8.676;2022-10-16T05:21:43;1.03;;;0.70;;
1649;SDS011;822;53.670;8.676;2022-10-16T05:24:11;0.73;;;0.70;;
1649;SDS011;822;53.670;8.676;2022-10-16T05:26:39;1.27;;;0.97;;
1649;SDS011;822;53.670;8.676;2022-10-16T05:29:08;1.17;;;1.07;;
1649;SDS011;822;53.670;8.676;2022-10-16T05:31:35;0.90;;;0.90;;
1649;SDS011;822;53.670;8.676;2022-10-16T05:34:02;0.90;;;0.70;;
1649;SDS011;822;53.670;8.676;2022-10-16T05:36:29;0.70;;;0.70;;
1649;SDS011;822;53.670;8.676;2022-10-16T05:38:56;0.83;;;0.83;;
1649;SDS011;822;53.670;8.676;2022-10-16T05:41:24;1.03;;;0.93;;
1649;SDS011;822;53.670;8.676;2022-10-16T05:43:51;1.00;;;1.00;;
1649;SDS011;822;53.670;8.676;2022-10-16T05:46:18;0.73;;;0.73;;
1649;SDS011;822;53.670;8.676;2022-10-16T05:48:48;1.20;;;1.10;;
1649;SDS011;822;53.670;8.676;2022-10-16T05:51:14;1.80;;;1.03;;
1649;SDS011;822;53.670;8.676;2022-10-16T05:53:41;1.03;;;0.90;;
1649;SDS011;822;53.670;8.676;2022-10-16T05:56:09;1.10;;;1.00;;
1649;SDS011;822;53.670;8.676;2022-10-16T05:58:38;1.40;;;1.30;;
1649;SDS011;822;53.670;8.676;2022-10-16T06:01:10;1.17;;;1.03;;
1649;SDS011;822;53.670;8.676;2022-10-16T06:03:37;0.90;;;0.90;;
1649;SDS011;822;53.670;8.676;2022-10-16T06:06:07;1.30;;;1.20;;
1649;SDS011;822;53.670;8.676;2022-10-16T06:08:35;1.47;;;1.37;;
1649;SDS011;822;53.670;8.676;2022-10-16T06:11:02;0.90;;;0.90;;
1649;SDS011;822;53.670;8.676;2022-10-16T06:13:29;1.27;;;1.17;;
1649;SDS011;822;53.670;8.676;2022-10-16T06:15:58;0.87;;;0.87;;
1649;SDS011;822;53.670;8.676;2022-10-16T06:18:25;1.37;;;1.27;;
1649;SDS011;822;53.670;8.676;2022-10-16T06:20:52;1.37;;;1.30;;
1649;SDS011;822;53.670;8.676;2022-10-16T06:23:19;1.30;;;1.20;;
1649;SDS011;822;53.670;8.676;2022-10-16T06:25:46;1.00;;;1.00;;
1649;SDS011;822;53.670;8.676;2022-10-16T06:28:13;1.33;;;1.27;;
1649;SDS011;822;53.670;8.676;2022-10-16T06:30:41;1.33;;;1.23;;
1649;SDS011;822;53.670;8.676;2022-10-16T06:33:10;1.80;;;1.70;;
1649;SDS011;822;53.670;8.676;2022-10-16T06:35:37;1.63;;;1.43;;
1649;SDS011;822;53.670;8.676;2022-10-16T06:38:03;1.70;;;1.60;;
1649;SDS011;822;53.670;8.676;2022-10-16T06:40:30;1.70;;;1.60;;
1649;SDS011;822;53.670;8.676;2022-10-16T06:42:58;1.50;;;1.40;;
1649;SDS011;822;53.670;8.676;2022-10-16T06:45:24;1.73;;;1.63;;
1649;SDS011;822;53.670;8.676;2022-10-16T06:47:51;2.00;;;1.90;;
1649;SDS011;822;53.670;8.676;2022-10-16T06:50:19;1.90;;;1.80;;
1649;SDS011;822;53.670;8.676;2022-10-16T06:52:46;1.70;;;1.60;;
1649;SDS011;822;53.670;8.676;2022-10-16T06:55:13;1.93;;;1.83;;
1649;SDS011;822;53.670;8.676;2022-10-16T06:57:42;4.77;;;1.80;;
1649;SDS011;822;53.670;8.676;2022-10-16T07:00:09;2.00;;;1.87;;
1649;SDS011;822;53.670;8.676;2022-10-16T07:02:36;2.27;;;2.10;;
1649;SDS011;822;53.670;8.676;2022-10-16T07:05:03;1.80;;;1.70;;
1649;SDS011;822;53.670;8.676;2022-10-16T07:07:32;1.70;;;1.60;;
1649;SDS011;822;53.670;8.676;2022-10-16T07:09:58;1.60;;;1.50;;
1649;SDS011;822;53.670;8.676;2022-10-16T07:12:25;2.23;;;2.07;;
1649;SDS011;822;53.670;8.676;2022-10-16T07:14:52;1.67;;;1.57;;
1649;SDS011;822;53.670;8.676;2022-10-16T07:17:22;2.20;;;2.00;;
1649;SDS011;822;53.670;8.676;2022-10-16T07:19:49;2.97;;;2.67;;
1649;SDS011;822;53.670;8.676;2022-10-16T07:22:18;1.80;;;1.63;;
1649;SDS011;822;53.670;8.676;2022-10-16T07:24:46;2.77;;;2.57;;
1649;SDS011;822;53.670;8.676;2022-10-16T07:27:13;1.73;;;1.63;;
1649;SDS011;822;53.670;8.676;2022-10-16T07:29:41;1.90;;;1.80;;
1649;SDS011;822;53.670;8.676;2022-10-16T07:32:08;2.57;;;2.47;;
1649;SDS011;822;53.670;8.676;2022-10-16T07:34:35;1.77;;;1.50;;
1649;SDS011;822;53.670;8.676;2022-10-16T07:37:02;2.07;;;1.97;;
1649;SDS011;822;53.670;8.676;2022-10-16T07:39:28;1.63;;;1.53;;
1649;SDS011;822;53.670;8.676;2022-10-16T07:41:57;1.90;;;1.80;;
1649;SDS011;822;53.670;8.676;2022-10-16T07:44:23;2.03;;;1.90;;
1649;SDS011;822;53.670;8.676;2022-10-16T07:46:50;1.73;;;1.60;;
1649;SDS011;822;53.670;8.676;2022-10-16T07:49:17;2.00;;;1.77;;
1649;SDS011;822;53.670;8.676;2022-10-16T07:51:47;2.30;;;2.10;;
1649;SDS011;822;53.670;8.676;2022-10-16T07:54:14;2.10;;;1.97;;
1649;SDS011;822;53.670;8.676;2022-10-16T07:56:44;2.70;;;1.87;;
1649;SDS011;822;53.670;8.676;2022-10-16T07:59:12;1.50;;;1.40;;
1649;SDS011;822;53.670;8.676;2022-10-16T08:01:39;2.33;;;1.90;;
1649;SDS011;822;53.670;8.676;2022-10-16T08:04:07;2.03;;;1.80;;
1649;SDS011;822;53.670;8.676;2022-10-16T08:06:34;1.70;;;1.60;;
1649;SDS011;822;53.670;8.676;2022-10-16T08:09:02;1.90;;;1.80;;
1649;SDS011;822;53.670;8.676;2022-10-16T08:11:32;1.90;;;1.80;;
1649;SDS011;822;53.670;8.676;2022-10-16T08:13:59;1.93;;;1.83;;
1649;SDS011;822;53.670;8.676;2022-10-16T08:16:28;2.00;;;1.87;;
1649;SDS011;822;53.670;8.676;2022-10-16T08:18:54;1.67;;;1.57;;
1649;SDS011;822;53.670;8.676;2022-10-16T08:21:22;1.70;;;1.60;;
1649;SDS011;822;53.670;8.676;2022-10-16T08:23:52;4.40;;;1.40;;
1649;SDS011;822;53.670;8.676;2022-10-16T08:26:19;2.40;;;2.20;;
1649;SDS011;822;53.670;8.676;2022-10-16T08:28:49;1.80;;;1.70;;
1649;SDS011;822;53.670;8.676;2022-10-16T08:31:16;1.70;;;1.60;;
1649;SDS011;822;53.670;8.676;2022-10-16T08:33:44;1.57;;;1.47;;
1649;SDS011;822;53.670;8.676;2022-10-16T08:36:12;1.50;;;1.40;;
1649;SDS011;822;53.670;8.676;2022-10-16T08:38:40;1.60;;;1.50;;
1649;SDS011;822;53.670;8.676;2022-10-16T08:41:15;4.37;;;1.43;;
1649;SDS011;822;53.670;8.676;2022-10-16T08:43:55;6.03;;;1.50;;
1649;SDS011;822;53.670;8.676;2022-10-16T08:46:34;1.53;;;1.43;;
1649;SDS011;822;53.670;8.676;2022-10-16T08:49:09;1.33;;;1.20;;
1649;SDS011;822;53.670;8.676;2022-10-16T08:51:38;1.83;;;1.23;;
1649;SDS011;822;53.670;8.676;2022-10-16T08:54:06;1.40;;;1.07;;
1649;SDS011;822;53.670;8.676;2022-10-16T08:56:37;1.70;;;1.60;;
1649;SDS011;822;53.670;8.676;2022-10-16T08:59:03;1.90;;;1.00;;
1649;SDS011;822;53.670;8.676;2022-10-16T09:01:35;0.90;;;0.90;;
1649;SDS011;822;53.670;8.676;2022-10-16T09:04:18;1.10;;;1.10;;
1649;SDS011;822;53.670;8.676;2022-10-16T09:06:54;1.27;;;1.17;;
1649;SDS011;822;53.670;8.676;2022-10-16T09:09:26;0.80;;;0.80;;
1649;SDS011;822;53.670;8.676;2022-10-16T09:12:12;0.87;;;0.80;;
1649;SDS011;822;53.670;8.676;2022-10-16T09:14:52;1.30;;;1.10;;
1649;SDS011;822;53.670;8.676;2022-10-16T09:17:29;1.00;;;0.90;;
1649;SDS011;822;53.670;8.676;2022-10-16T09:20:03;1.20;;;1.13;;
1649;SDS011;822;53.670;8.676;2022-10-16T09:22:39;0.80;;;0.80;;
1649;SDS011;822;53.670;8.676;2022-10-16T09:25:10;0.97;;;0.80;;
1649;SDS011;822;53.670;8.676;2022-10-16T09:27:38;1.13;;;1.03;;
1649;SDS011;822;53.670;8.676;2022-10-16T09:30:10;0.73;;;0.73;;
1649;SDS011;822;53.670;8.676;2022-10-16T09:32:41;1.10;;;1.07;;
1649;SDS011;822;53.670;8.676;2022-10-16T09:35:13;0.87;;;0.87;;
1649;SDS011;822;53.670;8.676;2022-10-16T09:37:41;0.57;;;0.50;;
1649;SDS011;822;53.670;8.676;2022-10-16T09:40:12;1.07;;;0.90;;
1649;SDS011;822;53.670;8.676;2022-10-16T09:42:39;1.40;;;0.80;;
1649;SDS011;822;53.670;8.676;2022-10-16T09:45:21;0.70;;;0.60;;
1649;SDS011;822;53.670;8.676;2022-10-16T09:48:10;1.43;;;1.10;;
1649;SDS011;822;53.670;8.676;2022-10-16T09:50:39;0.60;;;0.60;;
1649;SDS011;822;53.670;8.676;2022-10-16T09:53:08;0.80;;;0.50;;
1649;SDS011;822;53.670;8.676;2022-10-16T09:55:49;0.63;;;0.57;;
1649;SDS011;822;53.670;8.676;2022-10-16T09:58:16;0.63;;;0.63;;
1649;SDS011;822;53.670;8.676;2022-10-16T10:00:48;0.97;;;0.60;;
1649;SDS011;822;53.670;8.676;2022-10-16T10:03:19;0.57;;;0.40;;
1649;SDS011;822;53.670;8.676;2022-10-16T10:05:59;0.50;;;0.50;;
1649;SDS011;822;53.670;8.676;2022-10-16T10:08:26;0.50;;;0.50;;
1649;SDS011;822;53.670;8.676;2022-10-16T10:10:53;1.00;;;0.63;;
1649;SDS011;822;53.670;8.676;2022-10-16T10:13:20;0.50;;;0.50;;
1649;SDS011;822;53.670;8.676;2022-10-16T10:15:49;0.50;;;0.50;;
1649;SDS011;822;53.670;8.676;2022-10-16T10:18:16;0.47;;;0.40;;
1649;SDS011;822;53.670;8.676;2022-10-16T10:20:45;0.67;;;0.67;;
1649;SDS011;822;53.670;8.676;2022-10-16T10:23:20;0.67;;;0.67;;
1649;SDS011;822;53.670;8.676;2022-10-16T10:25:49;1.60;;;0.60;;
1649;SDS011;822;53.670;8.676;2022-10-16T10:31:10;0.80;;;0.80;;
1649;SDS011;822;53.670;8.676;2022-10-16T10:33:41;0.50;;;0.50;;
1649;SDS011;822;53.670;8.676;2022-10-16T10:36:22;0.90;;;0.43;;
1649;SDS011;822;53.670;8.676;2022-10-16T10:38:56;0.90;;;0.80;;
1649;SDS011;822;53.670;8.676;2022-10-16T10:41:36;1.30;;;0.70;;
1649;SDS011;822;53.670;8.676;2022-10-16T10:44:33;1.43;;;0.63;;
1649;SDS011;822;53.670;8.676;2022-10-16T10:47:10;1.87;;;0.70;;
1649;SDS011;822;53.670;8.676;2022-10-16T10:49:43;1.00;;;0.50;;
1649;SDS011;822;53.670;8.676;2022-10-16T10:52:22;0.60;;;0.53;;
1649;SDS011;822;53.670;8.676;2022-10-16T10:55:23;0.70;;;0.70;;
1649;SDS011;822;53.670;8.676;2022-10-16T10:58:04;0.67;;;0.60;;
1649;SDS011;822;53.670;8.676;2022-10-16T11:00:42;0.70;;;0.60;;
1649;SDS011;822;53.670;8.676;2022-10-16T11:03:20;2.40;;;0.50;;
1649;SDS011;822;53.670;8.676;2022-10-16T11:05:56;1.53;;;0.60;;
1649;SDS011;822;53.670;8.676;2022-10-16T11:08:26;0.73;;;0.73;;
1649;SDS011;822;53.670;8.676;2022-10-16T11:10:57;0.50;;;0.50;;
1649;SDS011;822;53.670;8.676;2022-10-16T11:13:28;1.37;;;0.60;;
1649;SDS011;822;53.670;8.676;2022-10-16T11:15:58;0.70;;;0.70;;
1649;SDS011;822;53.670;8.676;2022-10-16T11:18:29;0.43;;;0.43;;
1649;SDS011;822;53.670;8.676;2022-10-16T11:21:02;0.70;;;0.70;;
1649;SDS011;822;53.670;8.676;2022-10-16T11:23:31;1.20;;;0.60;;
1649;SDS011;822;53.670;8.676;2022-10-16T11:26:04;2.00;;;0.60;;
1649;SDS011;822;53.670;8.676;2022-10-16T11:28:35;0.47;;;0.47;;
1649;SDS011;822;53.670;8.676;2022-10-16T11:31:05;0.53;;;0.40;;
1649;SDS011;822;53.670;8.676;2022-10-16T11:33:36;2.40;;;0.60;;
1649;SDS011;822;53.670;8.676;2022-10-16T11:36:08;1.20;;;0.53;;
1649;SDS011;822;53.670;8.676;2022-10-16T11:38:41;0.40;;;0.30;;
1649;SDS011;822;53.670;8.676;2022-10-16T11:41:15;0.90;;;0.60;;
1649;SDS011;822;53.670;8.676;2022-10-16T11:43:49;0.60;;;0.50;;
1649;SDS011;822;53.670;8.676;2022-10-16T11:46:21;0.50;;;0.40;;
1649;SDS011;822;53.670;8.676;2022-10-16T11:48:52;1.27;;;0.67;;
1649;SDS011;822;53.670;8.676;2022-10-16T11:51:24;0.50;;;0.40;;
1649;SDS011;822;53.670;8.676;2022-10-16T11:53:57;0.60;;;0.50;;
1649;SDS011;822;53.670;8.676;2022-10-16T11:56:28;0.50;;;0.50;;
1649;SDS011;822;53.670;8.676;2022-10-16T11:58:57;1.17;;;0.50;;
1649;SDS011;822;53.670;8.676;2022-10-16T12:01:28;0.73;;;0.73;;
1649;SDS011;822;53.670;8.676;2022-10-16T12:04:06;0.50;;;0.50;;
1649;SDS011;822;53.670;8.676;2022-10-16T12:06:42;0.73;;;0.50;;
1649;SDS011;822;53.670;8.676;2022-10-16T12:09:15;0.77;;;0.43;;
1649;SDS011;822;53.670;8.676;2022-10-16T12:11:45;0.60;;;0.50;;
1649;SDS011;822;53.670;8.676;2022-10-16T12:14:20;0.60;;;0.43;;
1649;SDS011;822;53.670;8.676;2022-10-16T12:17:01;0.80;;;0.50;;
1649;SDS011;822;53.670;8.676;2022-10-16T12:19:31;0.70;;;0.60;;
1649;SDS011;822;53.670;8.676;2022-10-16T12:21:59;2.63;;;0.70;;
1649;SDS011;822;53.670;8.676;2022-10-16T12:24:31;0.50;;;0.50;;
1649;SDS011;822;53.670;8.676;2022-10-16T12:27:01;0.83;;;0.50;;
1649;SDS011;822;53.670;8.676;2022-10-16T12:29:31;0.50;;;0.50;;
1649;SDS011;822;53.670;8.676;2022-10-16T12:32:00;0.87;;;0.60;;
1649;SDS011;822;53.670;8.676;2022-10-16T12:34:28;0.50;;;0.50;;
1649;SDS011;822;53.670;8.676;2022-10-16T12:36:56;0.80;;;0.40;;
1649;SDS011;822;53.670;8.676;2022-10-16T12:39:35;0.73;;;0.40;;
1649;SDS011;822;53.670;8.676;2022-10-16T12:42:05;0.70;;;0.60;;
1649;SDS011;822;53.670;8.676;2022-10-16T12:44:43;0.77;;;0.70;;
1649;SDS011;822;53.670;8.676;2022-10-16T12:47:18;2.00;;;0.80;;
1649;SDS011;822;53.670;8.676;2022-10-16T12:49:48;1.07;;;0.47;;
1649;SDS011;822;53.670;8.676;2022-10-16T12:52:25;1.00;;;0.60;;
1649;SDS011;822;53.670;8.676;2022-10-16T12:54:55;1.53;;;0.50;;
1649;SDS011;822;53.670;8.676;2022-10-16T12:57:40;0.40;;;0.30;;
1649;SDS011;822;53.670;8.676;2022-10-16T13:00:13;1.27;;;0.60;;
1649;SDS011;822;53.670;8.676;2022-10-16T13:02:50;1.53;;;0.60;;
1649;SDS011;822;53.670;8.676;2022-10-16T13:05:44;0.67;;;0.57;;
1649;SDS011;822;53.670;8.676;2022-10-16T13:08:25;1.10;;;0.80;;
1649;SDS011;822;53.670;8.676;2022-10-16T13:11:03;2.00;;;0.93;;
1649;SDS011;822;53.670;8.676;2022-10-16T13:13:39;0.50;;;0.50;;
1649;SDS011;822;53.670;8.676;2022-10-16T13:16:15;1.03;;;0.50;;
1649;SDS011;822;53.670;8.676;2022-10-16T13:18:48;0.53;;;0.50;;
1649;SDS011;822;53.670;8.676;2022-10-16T13:21:24;0.90;;;0.40;;
1649;SDS011;822;53.670;8.676;2022-10-16T13:23:59;0.53;;;0.40;;
1649;SDS011;822;53.670;8.676;2022-10-16T13:26:32;1.17;;;0.60;;
1649;SDS011;822;53.670;8.676;2022-10-16T13:29:07;0.50;;;0.50;;
1649;SDS011;822;53.670;8.676;2022-10-16T13:31:36;1.03;;;0.50;;
1649;SDS011;822;53.670;8.676;2022-10-16T13:34:04;1.13;;;0.60;;
1649;SDS011;822;53.670;8.676;2022-10-16T13:36:34;0.40;;;0.33;;
1649;SDS011;822;53.670;8.676;2022-10-16T13:39:10;0.70;;;0.53;;
1649;SDS011;822;53.670;8.676;2022-10-16T13:41:39;0.60;;;0.60;;
1649;SDS011;822;53.670;8.676;2022-10-16T13:44:11;0.60;;;0.60;;
1649;SDS011;822;53.670;8.676;2022-10-16T13:46:40;0.50;;;0.40;;
1649;SDS011;822;53.670;8.676;2022-10-16T13:49:11;0.90;;;0.80;;
1649;SDS011;822;53.670;8.676;2022-10-16T13:51:40;0.60;;;0.60;;
1649;SDS011;822;53.670;8.676;2022-10-16T13:54:08;0.40;;;0.40;;
1649;SDS011;822;53.670;8.676;2022-10-16T13:56:36;3.90;;;0.70;;
1649;SDS011;822;53.670;8.676;2022-10-16T13:59:03;2.10;;;0.80;;
1649;SDS011;822;53.670;8.676;2022-10-16T14:01:33;0.90;;;0.53;;
1649;SDS011;822;53.670;8.676;2022-10-16T14:04:01;1.03;;;0.90;;
1649;SDS011;822;53.670;8.676;2022-10-16T14:06:30;0.43;;;0.43;;
1649;SDS011;822;53.670;8.676;2022-10-16T14:08:59;2.73;;;0.97;;
1649;SDS011;822;53.670;8.676;2022-10-16T14:11:28;0.83;;;0.70;;
1649;SDS011;822;53.670;8.676;2022-10-16T14:13:55;0.77;;;0.63;;
1649;SDS011;822;53.670;8.676;2022-10-16T14:16:23;0.60;;;0.50;;
1649;SDS011;822;53.670;8.676;2022-10-16T14:18:55;0.80;;;0.70;;
1649;SDS011;822;53.670;8.676;2022-10-16T14:21:23;1.10;;;0.90;;
1649;SDS011;822;53.670;8.676;2022-10-16T14:23:51;0.70;;;0.57;;
1649;SDS011;822;53.670;8.676;2022-10-16T14:26:19;0.80;;;0.80;;
1649;SDS011;822;53.670;8.676;2022-10-16T14:28:47;0.60;;;0.60;;
1649;SDS011;822;53.670;8.676;2022-10-16T14:33:58;1.80;;;0.50;;
1649;SDS011;822;53.670;8.676;2022-10-16T14:36:26;1.80;;;0.50;;
1649;SDS011;822;53.670;8.676;2022-10-16T14:38:56;1.30;;;0.73;;
1649;SDS011;822;53.670;8.676;2022-10-16T14:41:26;1.20;;;0.60;;
1649;SDS011;822;53.670;8.676;2022-10-16T14:43:57;0.50;;;0.50;;
1649;SDS011;822;53.670;8.676;2022-10-16T14:46:28;1.40;;;0.60;;
1649;SDS011;822;53.670;8.676;2022-10-16T14:49:00;0.47;;;0.43;;
1649;SDS011;822;53.670;8.676;2022-10-16T14:51:30;0.80;;;0.57;;
1649;SDS011;822;53.670;8.676;2022-10-16T14:53:57;2.60;;;0.50;;
1649;SDS011;822;53.670;8.676;2022-10-16T14:56:24;0.90;;;0.50;;
1649;SDS011;822;53.670;8.676;2022-10-16T14:58:53;1.27;;;0.80;;
1649;SDS011;822;53.670;8.676;2022-10-16T15:01:20;2.10;;;0.80;;
1649;SDS011;822;53.670;8.676;2022-10-16T15:03:50;0.50;;;0.50;;
1649;SDS011;822;53.670;8.676;2022-10-16T15:06:21;1.60;;;0.90;;
1649;SDS011;822;53.670;8.676;2022-10-16T15:08:48;0.80;;;0.70;;
1649;SDS011;822;53.670;8.676;2022-10-16T15:11:15;0.50;;;0.50;;
1649;SDS011;822;53.670;8.676;2022-10-16T15:13:43;0.63;;;0.57;;
1649;SDS011;822;53.670;8.676;2022-10-16T15:16:10;0.50;;;0.50;;
1649;SDS011;822;53.670;8.676;2022-10-16T15:18:38;1.17;;;0.77;;
1649;SDS011;822;53.670;8.676;2022-10-16T15:21:05;1.57;;;0.60;;
1649;SDS011;822;53.670;8.676;2022-10-16T15:23:33;0.43;;;0.43;;
1649;SDS011;822;53.670;8.676;2022-10-16T15:26:00;1.27;;;0.70;;
1649;SDS011;822;53.670;8.676;2022-10-16T15:28:27;0.47;;;0.47;;
1649;SDS011;822;53.670;8.676;2022-10-16T15:30:54;0.80;;;0.70;;
1649;SDS011;822;53.670;8.676;2022-10-16T15:33:22;1.50;;;0.60;;
1649;SDS011;822;53.670;8.676;2022-10-16T15:35:52;0.60;;;0.60;;
1649;SDS011;822;53.670;8.676;2022-10-16T15:38:20;1.33;;;1.10;;
1649;SDS011;822;53.670;8.676;2022-10-16T15:40:49;1.70;;;1.60;;
1649;SDS011;822;53.670;8.676;2022-10-16T15:43:16;1.43;;;1.33;;
1649;SDS011;822;53.670;8.676;2022-10-16T15:45:43;1.30;;;1.30;;
1649;SDS011;822;53.670;8.676;2022-10-16T15:48:11;1.47;;;0.80;;
1649;SDS011;822;53.670;8.676;2022-10-16T15:50:41;1.43;;;0.73;;
1649;SDS011;822;53.670;8.676;2022-10-16T15:53:08;4.37;;;0.70;;